Glen Castle, New York
Current Conditions -  °F | °C
As of 6:53 AM on Thursday 27 Nov 2014 (Local Time) from KBGM Reporting Station
Light Snow Light Snow  
Wind Chill: 32°   Ceiling: 500
Heat Index: 32°   Visibility: 3mi
Dew Point: 24°   Wind: 3mph
Humidity: 73%   Direction: 320°NW
Pressure: 29.93"   Gusts: NA
Location:  42.1934°N, 75.8849°W
Report Text: KBGM 271153Z 32003KT 3SM -SN BKN005 OVC033 00/M04 A2993 RMK AO2 SLP146 P0001 60001 70051 T00001044 10033 20000 53009 $
Loading
Personal Weather Stations






























Interactive Weather Map New forecast layout! Learn more

10-Day Weather Forecast

Advertisements
Track Severe Weather on mobile